Time,TemperatureF,DewpointF,PressureIn,WindDirection,WindDirectionDegrees,WindSpeedMPH,WindSpeedGustMPH,Humidity,HourlyPrecipIn,Conditions,Clouds,dailyrainin,SoftwareType,DateUTC
2013-04-16 00:02:00,31.0,31.0,-100.00,WSW,246,1.0,3.0,99,-99.99,,,-99.99,,2013-04-16 07:02:00,
2013-04-16 00:42:00,31.0,31.0,-100.00,WNW,292,4.0,7.0,99,-99.99,,,-99.99,,2013-04-16 07:42:00,
2013-04-16 00:53:00,31.0,31.0,-100.00,WNW,292,4.0,7.0,99,-99.99,,,-99.99,,2013-04-16 07:53:00,
2013-04-16 01:02:00,31.0,31.0,-100.00,WNW,292,4.0,7.0,99,-99.99,,,-99.99,,2013-04-16 08:02:00,
2013-04-16 01:12:00,31.0,31.0,-100.00,West,260,4.0,9.0,99,-99.99,,,-99.99,,2013-04-16 08:12:00,
2013-04-16 01:22:00,31.0,31.0,-100.00,West,260,4.0,9.0,99,-99.99,,,-99.99,,2013-04-16 08:22:00,
2013-04-16 01:32:00,31.0,31.0,-100.00,West,260,4.0,9.0,99,-99.99,,,-99.99,,2013-04-16 08:32:00,
2013-04-16 01:42:00,31.0,31.0,-100.00,NW,316,7.0,11.0,99,-99.99,,,-99.99,,2013-04-16 08:42:00,
2013-04-16 01:52:00,31.0,31.0,-100.00,NW,305,6.0,11.0,99,-99.99,,,-99.99,,2013-04-16 08:52:00,
2013-04-16 02:02:00,31.0,31.0,-100.00,NW,305,6.0,11.0,99,-99.99,,,-99.99,,2013-04-16 09:02:00,
2013-04-16 02:12:00,31.0,31.0,-100.00,WNW,296,5.0,8.0,99,-99.99,,,-99.99,,2013-04-16 09:12:00,
2013-04-16 02:22:00,31.0,31.0,-100.00,WNW,296,5.0,8.0,99,-99.99,,,-99.99,,2013-04-16 09:22:00,
2013-04-16 02:32:00,31.0,31.0,-100.00,WNW,296,5.0,8.0,99,-99.99,,,-99.99,,2013-04-16 09:32:00,
2013-04-16 02:43:00,31.0,31.0,-100.00,NW,316,7.0,13.0,99,-99.99,,,-99.99,,2013-04-16 09:43:00,
2013-04-16 02:53:00,30.0,30.0,-100.00,NW,319,7.0,12.0,99,-99.99,,,-99.99,,2013-04-16 09:53:00,
2013-04-16 03:03:00,30.0,30.0,-100.00,NW,319,7.0,12.0,99,-99.99,,,-99.99,,2013-04-16 10:03:00,
2013-04-16 03:12:00,30.0,30.0,-100.00,NW,326,10.0,16.0,99,-99.99,,,-99.99,,2013-04-16 10:12:00,
2013-04-16 03:22:00,30.0,30.0,-100.00,NW,326,10.0,16.0,99,-99.99,,,-99.99,,2013-04-16 10:22:00,
2013-04-16 03:32:00,30.0,30.0,-100.00,NW,326,10.0,16.0,99,-99.99,,,-99.99,,2013-04-16 10:32:00,
2013-04-16 03:43:00,30.0,30.0,-100.00,NW,319,11.0,19.0,100,-99.99,,,-99.99,,2013-04-16 10:43:00,
2013-04-16 03:53:00,29.0,29.0,-100.00,NW,325,11.0,18.0,100,-99.99,,,-99.99,,2013-04-16 10:53:00,
2013-04-16 04:02:00,29.0,29.0,-100.00,NW,325,11.0,18.0,100,-99.99,,,-99.99,,2013-04-16 11:02:00,
2013-04-16 04:12:00,30.0,30.0,-100.00,NW,319,9.0,15.0,100,-99.99,,,-99.99,,2013-04-16 11:12:00,
2013-04-16 04:22:00,30.0,30.0,-100.00,NW,319,9.0,15.0,100,-99.99,,,-99.99,,2013-04-16 11:22:00,
2013-04-16 04:32:00,30.0,30.0,-100.00,NW,319,9.0,15.0,100,-99.99,,,-99.99,,2013-04-16 11:32:00,
2013-04-16 04:42:00,30.0,29.0,-100.00,NW,325,11.0,17.0,98,-99.99,,,-99.99,,2013-04-16 11:42:00,
2013-04-16 04:52:00,30.0,29.0,-100.00,NW,325,11.0,17.0,98,-99.99,,,-99.99,,2013-04-16 11:52:00,
2013-04-16 05:02:00,30.0,29.0,-100.00,NW,325,11.0,17.0,98,-99.99,,,-99.99,,2013-04-16 12:02:00,
2013-04-16 05:12:00,30.0,27.0,-100.00,NW,326,10.0,16.0,89,-99.99,,,-99.99,,2013-04-16 12:12:00,
2013-04-16 05:22:00,30.0,27.0,-100.00,NW,326,10.0,16.0,89,-99.99,,,-99.99,,2013-04-16 12:22:00,
2013-04-16 05:32:00,30.0,27.0,-100.00,NW,326,10.0,16.0,89,-99.99,,,-99.99,,2013-04-16 12:32:00,
2013-04-16 06:12:00,31.0,26.0,-100.00,NNW,346,4.0,12.0,82,-99.99,,,-99.99,,2013-04-16 13:12:00,
2013-04-16 06:22:00,31.0,26.0,-100.00,NNW,346,4.0,12.0,82,-99.99,,,-99.99,,2013-04-16 13:22:00,
2013-04-16 06:32:00,31.0,26.0,-100.00,NNW,346,4.0,12.0,82,-99.99,,,-99.99,,2013-04-16 13:32:00,
2013-04-16 06:42:00,31.0,25.0,-100.00,North,353,4.0,9.0,79,-99.99,,,-99.99,,2013-04-16 13:42:00,
2013-04-16 06:52:00,31.0,25.0,-100.00,North,353,4.0,9.0,79,-99.99,,,-99.99,,2013-04-16 13:52:00,
2013-04-16 07:02:00,31.0,25.0,-100.00,North,353,4.0,9.0,79,-99.99,,,-99.99,,2013-04-16 14:02:00,
2013-04-16 07:22:00,31.0,26.0,-100.00,NNW,347,3.0,9.0,80,-99.99,,,-99.99,,2013-04-16 14:22:00,
2013-04-16 07:32:00,31.0,26.0,-100.00,NNW,347,3.0,9.0,80,-99.99,,,-99.99,,2013-04-16 14:32:00,
2013-04-16 07:42:00,31.0,25.0,-100.00,NNW,332,8.0,15.0,77,-99.99,,,-99.99,,2013-04-16 14:42:00,
2013-04-16 07:52:00,31.0,25.0,-100.00,NNW,332,8.0,15.0,77,-99.99,,,-99.99,,2013-04-16 14:52:00,
2013-04-16 08:02:00,31.0,25.0,-100.00,NNW,332,8.0,15.0,77,-99.99,,,-99.99,,2013-04-16 15:02:00,
2013-04-16 08:22:00,31.0,24.0,-100.00,NNW,335,10.0,17.0,76,-99.99,,,-99.99,,2013-04-16 15:22:00,
2013-04-16 08:32:00,31.0,24.0,-100.00,NNW,335,10.0,17.0,76,-99.99,,,-99.99,,2013-04-16 15:32:00,
2013-04-16 08:43:00,31.0,24.0,-100.00,NNW,335,10.0,17.0,76,-99.99,,,-99.99,,2013-04-16 15:43:00,
2013-04-16 08:52:00,31.0,24.0,-100.00,NNW,340,8.0,17.0,74,-99.99,,,-99.99,,2013-04-16 15:52:00,
2013-04-16 09:03:00,31.0,24.0,-100.00,NNW,340,8.0,17.0,74,-99.99,,,-99.99,,2013-04-16 16:03:00,
2013-04-16 09:13:00,31.0,24.0,-100.00,NNW,340,8.0,17.0,74,-99.99,,,-99.99,,2013-04-16 16:13:00,
2013-04-16 09:22:00,31.0,24.0,-100.00,NNW,340,8.0,17.0,74,-99.99,,,-99.99,,2013-04-16 16:22:00,
2013-04-16 09:53:00,33.0,23.0,-100.00,North,349,7.0,15.0,67,-99.99,,,-99.99,,2013-04-16 16:53:00,
2013-04-16 10:02:00,33.0,23.0,-100.00,North,349,7.0,15.0,67,-99.99,,,-99.99,,2013-04-16 17:02:00,
2013-04-16 10:12:00,33.0,23.0,-100.00,North,349,7.0,15.0,67,-99.99,,,-99.99,,2013-04-16 17:12:00,
2013-04-16 10:22:00,33.0,22.0,-100.00,NNW,347,6.0,14.0,64,-99.99,,,-99.99,,2013-04-16 17:22:00,
2013-04-16 10:32:00,33.0,22.0,-100.00,NNW,347,6.0,14.0,64,-99.99,,,-99.99,,2013-04-16 17:32:00,
2013-04-16 10:43:00,34.0,22.0,-100.00,North,354,7.0,16.0,60,-99.99,,,-99.99,,2013-04-16 17:43:00,
2013-04-16 10:52:00,33.0,21.0,-100.00,NNW,332,10.0,18.0,62,-99.99,,,-99.99,,2013-04-16 17:52:00,
2013-04-16 11:02:00,33.0,21.0,-100.00,NNW,332,10.0,18.0,62,-99.99,,,-99.99,,2013-04-16 18:02:00,
2013-04-16 11:12:00,33.0,21.0,-100.00,NNW,332,10.0,18.0,62,-99.99,,,-99.99,,2013-04-16 18:12:00,
2013-04-16 11:22:00,35.0,20.0,-100.00,NNE,18,10.0,17.0,53,-99.99,,,-99.99,,2013-04-16 18:22:00,
2013-04-16 11:32:00,35.0,20.0,-100.00,NNE,18,10.0,17.0,53,-99.99,,,-99.99,,2013-04-16 18:32:00,
2013-04-16 11:42:00,35.0,20.0,-100.00,NNE,18,10.0,17.0,53,-99.99,,,-99.99,,2013-04-16 18:42:00,
2013-04-16 11:52:00,37.0,20.0,-100.00,NNW,347,13.0,25.0,50,-99.99,,,-99.99,,2013-04-16 18:52:00,
2013-04-16 12:02:00,37.0,20.0,-100.00,NNW,347,13.0,25.0,50,-99.99,,,-99.99,,2013-04-16 19:02:00,
2013-04-16 12:12:00,37.0,20.0,-100.00,NNW,347,13.0,25.0,50,-99.99,,,-99.99,,2013-04-16 19:12:00,
2013-04-16 12:22:00,36.0,16.0,-100.00,North,356,10.0,20.0,43,-99.99,,,-99.99,,2013-04-16 19:22:00,
2013-04-16 12:32:00,36.0,16.0,-100.00,North,356,10.0,20.0,43,-99.99,,,-99.99,,2013-04-16 19:32:00,
2013-04-16 12:42:00,36.0,16.0,-100.00,North,356,10.0,20.0,43,-99.99,,,-99.99,,2013-04-16 19:42:00,
2013-04-16 12:52:00,38.0,21.0,-100.00,North,349,11.0,28.0,50,-99.99,,,-99.99,,2013-04-16 19:52:00,
2013-04-16 13:02:00,38.0,21.0,-100.00,North,349,11.0,28.0,50,-99.99,,,-99.99,,2013-04-16 20:02:00,
2013-04-16 13:12:00,38.0,21.0,-100.00,North,349,11.0,28.0,50,-99.99,,,-99.99,,2013-04-16 20:12:00,
2013-04-16 13:22:00,38.0,21.0,-100.00,North,349,11.0,28.0,50,-99.99,,,-99.99,,2013-04-16 20:22:00,
2013-04-16 14:22:00,39.0,13.0,-100.00,NNW,330,13.0,22.0,34,-99.99,,,-99.99,,2013-04-16 21:22:00,
2013-04-16 14:32:00,39.0,13.0,-100.00,NNW,330,13.0,22.0,34,-99.99,,,-99.99,,2013-04-16 21:32:00,
2013-04-16 14:43:00,39.0,13.0,-100.00,NNW,330,13.0,22.0,34,-99.99,,,-99.99,,2013-04-16 21:43:00,
2013-04-16 14:52:00,41.0,13.0,-100.00,North,354,11.0,25.0,32,-99.99,,,-99.99,,2013-04-16 21:52:00,
2013-04-16 15:02:00,41.0,13.0,-100.00,North,354,11.0,25.0,32,-99.99,,,-99.99,,2013-04-16 22:02:00,
2013-04-16 15:12:00,41.0,13.0,-100.00,North,354,11.0,25.0,32,-99.99,,,-99.99,,2013-04-16 22:12:00,
2013-04-16 15:22:00,41.0,13.0,-100.00,NNW,328,15.0,26.0,31,-99.99,,,-99.99,,2013-04-16 22:22:00,
2013-04-16 15:32:00,41.0,13.0,-100.00,NNW,328,15.0,26.0,31,-99.99,,,-99.99,,2013-04-16 22:32:00,
2013-04-16 15:42:00,41.0,13.0,-100.00,NNW,328,15.0,26.0,31,-99.99,,,-99.99,,2013-04-16 22:42:00,
2013-04-16 15:52:00,41.0,13.0,-100.00,NNW,328,15.0,26.0,31,-99.99,,,-99.99,,2013-04-16 22:52:00,
2013-04-16 19:12:00,35.0,19.0,-100.00,NNW,339,8.0,17.0,51,-99.99,,,-99.99,,2013-04-17 02:12:00,
2013-04-16 19:42:00,35.0,19.0,-100.00,NNW,339,8.0,17.0,51,-99.99,,,-99.99,,2013-04-17 02:42:00,
2013-04-16 19:52:00,35.0,19.0,-100.00,NNW,339,8.0,17.0,51,-99.99,,,-99.99,,2013-04-17 02:52:00,
2013-04-16 20:02:00,35.0,19.0,-100.00,NNW,339,8.0,17.0,51,-99.99,,,-99.99,,2013-04-17 03:02:00,
2013-04-16 23:52:00,28.0,20.0,-100.00,ESE,112,3.0,4.0,71,-99.99,,,-99.99,,2013-04-17 06:52:00,